EmailTwitter


Observations de surface / France / LFBD (07510)

Régions: Québec | Canada | États-Unis | Europe | France | UK | Ailleurs
Station
Affichage
Infos & localisation pour LFBD (07510) | Aide pour décoder les METARs

Observations prises le 2020-08-15 à 12H30 UTC à BORDEAUX/MERIGNA, FR (LFBD)

Température: 28.0 Celsius

Point de rosée: 16.0 Celsius

Humidité relative: 48%

Indice Humidex: 33.

Vents: Est à 15 km/h ou 8 noeuds.

Pression au niveau moyen de la mer: 101.20 kilopascals.

Observation METAR:

LFBD 151230Z AUTO 09008KT 040V140 CAVOK 28/16 Q1012 TEMPO FEW070CB BKN090TCU=